TPA3202 SGAS-SKBO
Flight info
| Callsign | TPA3202 |
|---|---|
| Flight time | 4h 41m |
| Altitude | 40000 |
| Route | OBLUM OBLUM UN420 RCO UL417 PABON DCT SJE DCT EGEPI DCT VUNEX VUNEX4W |
| Aircraft | A333/H-SDE3GHIJ2J3J5M1RVWXY/LB2D1 |
Departure
| Time | 2026-04-20 21:40 |
|---|---|
| Airport | Silvio Pettirossi International Airport (SGAS) |
Arrival
| Time | 2026-04-21 02:22 |
|---|---|
| Airport | El Dorado International Airport (SKBO) |
| Time | Latitude | Longitude | Altitude | Speed | Heading |
|---|---|---|---|---|---|
| 2026-04-20 21:29 | -25.24406 | -57.51570 | 288 ft | 0 kts | 261° |
| 2026-04-20 21:33 | -25.24406 | -57.51572 | 288 ft | 1 kts | 263° |
| 2026-04-20 21:33 | -25.24400 | -57.51594 | 288 ft | 5 kts | 294° |
| 2026-04-20 21:34 | -25.24352 | -57.51631 | 288 ft | 12 kts | 334° |
| 2026-04-20 21:34 | -25.24252 | -57.51646 | 287 ft | 16 kts | 7° |
| 2026-04-20 21:34 | -25.24148 | -57.51625 | 285 ft | 15 kts | 13° |
| 2026-04-20 21:34 | -25.24050 | -57.51612 | 284 ft | 13 kts | 345° |
| 2026-04-20 21:35 | -25.23973 | -57.51662 | 283 ft | 13 kts | 329° |
| 2026-04-20 21:35 | -25.23891 | -57.51674 | 282 ft | 12 kts | 11° |
| 2026-04-20 21:35 | -25.23805 | -57.51654 | 281 ft | 13 kts | 12° |
| 2026-04-20 21:35 | -25.23702 | -57.51628 | 280 ft | 17 kts | 13° |
| 2026-04-20 21:36 | -25.23569 | -57.51595 | 278 ft | 22 kts | 12° |
| 2026-04-20 21:36 | -25.23428 | -57.51562 | 276 ft | 19 kts | 12° |
| 2026-04-20 21:36 | -25.23305 | -57.51532 | 275 ft | 17 kts | 12° |
| 2026-04-20 21:36 | -25.23188 | -57.51502 | 273 ft | 18 kts | 12° |
| 2026-04-20 21:37 | -25.23064 | -57.51472 | 271 ft | 19 kts | 13° |
| 2026-04-20 21:37 | -25.22932 | -57.51440 | 270 ft | 20 kts | 12° |
| 2026-04-20 21:37 | -25.22842 | -57.51418 | 268 ft | 20 kts | 12° |
| 2026-04-20 21:37 | -25.22713 | -57.51385 | 267 ft | 18 kts | 12° |
| 2026-04-20 21:38 | -25.22619 | -57.51363 | 266 ft | 11 kts | 11° |
| 2026-04-20 21:38 | -25.22549 | -57.51402 | 265 ft | 8 kts | 295° |
| 2026-04-20 21:38 | -25.22539 | -57.51440 | 265 ft | 7 kts | 283° |
| 2026-04-20 21:38 | -25.22528 | -57.51490 | 264 ft | 6 kts | 283° |
| 2026-04-20 21:39 | -25.22525 | -57.51540 | 264 ft | 6 kts | 254° |
| 2026-04-20 21:39 | -25.22552 | -57.51566 | 265 ft | 5 kts | 208° |
| 2026-04-20 21:39 | -25.22590 | -57.51578 | 265 ft | 11 kts | 191° |
| 2026-04-20 21:39 | -25.22836 | -57.51635 | 270 ft | 65 kts | 192° |
| 2026-04-20 21:40 | -25.23465 | -57.51786 | 276 ft | 119 kts | 192° |
| 2026-04-20 21:40 | -25.24426 | -57.52016 | 379 ft | 159 kts | 192° |
| 2026-04-20 21:40 | -25.25512 | -57.52298 | 1082 ft | 156 kts | 192° |
| 2026-04-20 21:40 | -25.26625 | -57.52599 | 1521 ft | 176 kts | 191° |
| 2026-04-20 21:41 | -25.27916 | -57.52905 | 1755 ft | 207 kts | 191° |
| 2026-04-20 21:41 | -25.29431 | -57.53260 | 2045 ft | 239 kts | 192° |
| 2026-04-20 21:41 | -25.31171 | -57.53678 | 2372 ft | 265 kts | 192° |
| 2026-04-20 21:41 | -25.33017 | -57.54128 | 2904 ft | 276 kts | 193° |
| 2026-04-20 21:42 | -25.34888 | -57.54584 | 3599 ft | 281 kts | 193° |
| 2026-04-20 21:42 | -25.36815 | -57.55054 | 4322 ft | 285 kts | 193° |
| 2026-04-20 21:42 | -25.38726 | -57.55697 | 5032 ft | 288 kts | 209° |
| 2026-04-20 21:42 | -25.40254 | -57.57078 | 5773 ft | 283 kts | 238° |
| 2026-04-20 21:43 | -25.40971 | -57.59028 | 6546 ft | 276 kts | 267° |
| 2026-04-20 21:43 | -25.40860 | -57.61137 | 7349 ft | 271 kts | 284° |
| 2026-04-20 21:43 | -25.40465 | -57.63150 | 8137 ft | 272 kts | 287° |
| 2026-04-20 21:43 | -25.40021 | -57.65194 | 8960 ft | 275 kts | 288° |
| 2026-04-20 21:44 | -25.39343 | -57.67156 | 9818 ft | 272 kts | 303° |
| 2026-04-20 21:44 | -25.38112 | -57.68760 | 10414 ft | 281 kts | 323° |
| 2026-04-20 21:44 | -25.36307 | -57.69757 | 10718 ft | 301 kts | 341° |
| 2026-04-20 21:44 | -25.34218 | -57.70391 | 10988 ft | 321 kts | 345° |
| 2026-04-20 21:45 | -25.31983 | -57.70994 | 11287 ft | 338 kts | 345° |
| 2026-04-20 21:45 | -25.29665 | -57.71626 | 11788 ft | 347 kts | 344° |
| 2026-04-20 21:45 | -25.27335 | -57.72275 | 12398 ft | 352 kts | 344° |
| 2026-04-20 21:45 | -25.24940 | -57.72952 | 13032 ft | 357 kts | 343° |
| 2026-04-20 21:46 | -25.22518 | -57.73642 | 13662 ft | 362 kts | 343° |
| 2026-04-20 21:46 | -25.20063 | -57.74345 | 14222 ft | 366 kts | 343° |
| 2026-04-20 21:46 | -25.17584 | -57.75056 | 14794 ft | 370 kts | 343° |
| 2026-04-20 21:46 | -25.15082 | -57.75774 | 15361 ft | 374 kts | 342° |
| 2026-04-20 21:47 | -25.12553 | -57.76500 | 15937 ft | 377 kts | 342° |
| 2026-04-20 21:47 | -25.10006 | -57.77232 | 16520 ft | 381 kts | 342° |
| 2026-04-20 21:47 | -25.07427 | -57.77972 | 17074 ft | 384 kts | 343° |
| 2026-04-20 21:47 | -25.04831 | -57.78717 | 17647 ft | 387 kts | 343° |
| 2026-04-20 21:48 | -25.02216 | -57.79467 | 18183 ft | 391 kts | 343° |
| 2026-04-20 21:48 | -24.99573 | -57.80225 | 18618 ft | 394 kts | 342° |
| 2026-04-20 21:48 | -24.96902 | -57.80991 | 19082 ft | 398 kts | 342° |
| 2026-04-20 21:48 | -24.94209 | -57.81762 | 19539 ft | 401 kts | 342° |
| 2026-04-20 21:49 | -24.91496 | -57.82539 | 19986 ft | 404 kts | 342° |
| 2026-04-20 21:49 | -24.88826 | -57.83304 | 20419 ft | 407 kts | 342° |
| 2026-04-20 21:49 | -24.86070 | -57.84092 | 20858 ft | 410 kts | 342° |
| 2026-04-20 21:49 | -24.83297 | -57.84885 | 21283 ft | 414 kts | 342° |
| 2026-04-20 21:50 | -24.80505 | -57.85684 | 21775 ft | 416 kts | 342° |
| 2026-04-20 21:50 | -24.77698 | -57.86486 | 22195 ft | 419 kts | 342° |
| 2026-04-20 21:50 | -24.74901 | -57.87285 | 22599 ft | 422 kts | 342° |
| 2026-04-20 21:50 | -24.72050 | -57.88099 | 23008 ft | 425 kts | 342° |
| 2026-04-20 21:51 | -24.69175 | -57.88920 | 23401 ft | 429 kts | 341° |
| 2026-04-20 21:51 | -24.66280 | -57.89745 | 23752 ft | 432 kts | 341° |
| 2026-04-20 21:51 | -24.63356 | -57.90579 | 24093 ft | 434 kts | 341° |
| 2026-04-20 21:51 | -24.60424 | -57.91414 | 24441 ft | 437 kts | 341° |
| 2026-04-20 21:52 | -24.57476 | -57.92254 | 24791 ft | 439 kts | 341° |
| 2026-04-20 21:52 | -24.54507 | -57.93099 | 25129 ft | 442 kts | 341° |
| 2026-04-20 21:52 | -24.51576 | -57.94106 | 25498 ft | 440 kts | 334° |
| 2026-04-20 21:52 | -24.48835 | -57.95593 | 25839 ft | 437 kts | 324° |
| 2026-04-20 21:53 | -24.46303 | -57.97438 | 26180 ft | 437 kts | 321° |
| 2026-04-20 21:53 | -24.43842 | -57.99403 | 26523 ft | 439 kts | 320° |
| 2026-04-20 21:53 | -24.41413 | -58.01431 | 26873 ft | 441 kts | 319° |
| 2026-04-20 21:53 | -24.38978 | -58.03495 | 27214 ft | 443 kts | 319° |
| 2026-04-20 21:54 | -24.36535 | -58.05563 | 27537 ft | 445 kts | 319° |
| 2026-04-20 21:54 | -24.34068 | -58.07637 | 27865 ft | 448 kts | 319° |
| 2026-04-20 21:54 | -24.31586 | -58.09708 | 28195 ft | 450 kts | 319° |
| 2026-04-20 21:54 | -24.29079 | -58.11788 | 28516 ft | 452 kts | 320° |
| 2026-04-20 21:55 | -24.26563 | -58.13865 | 28837 ft | 454 kts | 320° |
| 2026-04-20 21:55 | -24.24024 | -58.15957 | 29148 ft | 457 kts | 320° |
| 2026-04-20 21:55 | -24.21515 | -58.18023 | 29450 ft | 459 kts | 320° |
| 2026-04-20 21:55 | -24.18957 | -58.20126 | 29759 ft | 461 kts | 320° |
| 2026-04-20 21:56 | -24.16393 | -58.22235 | 30137 ft | 460 kts | 320° |
| 2026-04-20 21:56 | -24.13830 | -58.24341 | 30454 ft | 461 kts | 320° |
| 2026-04-20 21:56 | -24.11262 | -58.26452 | 30676 ft | 463 kts | 319° |
| 2026-04-20 21:56 | -24.08667 | -58.28586 | 30853 ft | 467 kts | 319° |
| 2026-04-20 21:57 | -24.06063 | -58.30725 | 31181 ft | 466 kts | 320° |
| 2026-04-20 21:57 | -24.03472 | -58.32851 | 31558 ft | 465 kts | 320° |
| 2026-04-20 21:57 | -24.00890 | -58.34969 | 31926 ft | 464 kts | 320° |
| 2026-04-20 21:57 | -23.98310 | -58.37083 | 32278 ft | 463 kts | 320° |
| 2026-04-20 21:58 | -23.95764 | -58.39170 | 32622 ft | 462 kts | 320° |
| 2026-04-20 21:58 | -23.93192 | -58.41277 | 32972 ft | 461 kts | 320° |
| 2026-04-20 21:58 | -23.90624 | -58.43380 | 33320 ft | 461 kts | 320° |
| 2026-04-20 21:58 | -23.88062 | -58.45477 | 33661 ft | 460 kts | 320° |
| 2026-04-20 21:59 | -23.85501 | -58.47572 | 33993 ft | 459 kts | 320° |
| 2026-04-20 21:59 | -23.82953 | -58.49657 | 34276 ft | 458 kts | 321° |
| 2026-04-20 21:59 | -23.80403 | -58.51751 | 34601 ft | 457 kts | 320° |
| 2026-04-20 21:59 | -23.77869 | -58.53837 | 34919 ft | 455 kts | 320° |
| 2026-04-20 22:00 | -23.75347 | -58.55915 | 35198 ft | 454 kts | 320° |
| 2026-04-20 22:00 | -23.72825 | -58.57993 | 35496 ft | 453 kts | 320° |
| 2026-04-20 22:00 | -23.70316 | -58.60058 | 35789 ft | 452 kts | 320° |
| 2026-04-20 22:00 | -23.67803 | -58.62126 | 36075 ft | 451 kts | 320° |
| 2026-04-20 22:01 | -23.65293 | -58.64189 | 36333 ft | 451 kts | 320° |
| 2026-04-20 22:01 | -23.62780 | -58.66255 | 36473 ft | 454 kts | 320° |
| 2026-04-20 22:01 | -23.60261 | -58.68324 | 36717 ft | 454 kts | 320° |
| 2026-04-20 22:01 | -23.57740 | -58.70392 | 37001 ft | 453 kts | 320° |
| 2026-04-20 22:02 | -23.55228 | -58.72451 | 37278 ft | 452 kts | 320° |
| 2026-04-20 22:02 | -23.52716 | -58.74510 | 37538 ft | 451 kts | 320° |
| 2026-04-20 22:02 | -23.50210 | -58.76563 | 37806 ft | 450 kts | 320° |
| 2026-04-20 22:02 | -23.47709 | -58.78610 | 38060 ft | 449 kts | 320° |
| 2026-04-20 22:03 | -23.45209 | -58.80657 | 38312 ft | 449 kts | 320° |
| 2026-04-20 22:03 | -23.42714 | -58.82698 | 38548 ft | 448 kts | 319° |
| 2026-04-20 22:03 | -23.40217 | -58.84741 | 38711 ft | 449 kts | 319° |
| 2026-04-20 22:03 | -23.37757 | -58.86751 | 38878 ft | 449 kts | 319° |
| 2026-04-20 22:04 | -23.35261 | -58.88791 | 39071 ft | 448 kts | 319° |
| 2026-04-20 22:04 | -23.32770 | -58.90825 | 39255 ft | 447 kts | 319° |
| 2026-04-20 22:04 | -23.30280 | -58.92857 | 39441 ft | 447 kts | 319° |
| 2026-04-20 22:04 | -23.27792 | -58.94886 | 39605 ft | 446 kts | 319° |
| 2026-04-20 22:05 | -23.25312 | -58.96909 | 39783 ft | 446 kts | 319° |
| 2026-04-20 22:05 | -23.20333 | -59.00965 | 39887 ft | 446 kts | 319° |
| 2026-04-20 22:06 | -23.15366 | -59.05008 | 39893 ft | 446 kts | 319° |
| 2026-04-20 22:06 | -23.10398 | -59.09048 | 39891 ft | 446 kts | 319° |
| 2026-04-20 22:07 | -23.05416 | -59.13096 | 39887 ft | 446 kts | 319° |
| 2026-04-20 22:07 | -23.00444 | -59.17130 | 39888 ft | 446 kts | 319° |
| 2026-04-20 22:08 | -22.95465 | -59.21167 | 39879 ft | 447 kts | 317° |
| 2026-04-20 22:08 | -22.90478 | -59.25207 | 39888 ft | 448 kts | 317° |
| 2026-04-20 22:09 | -22.85479 | -59.29253 | 39884 ft | 448 kts | 317° |
| 2026-04-20 22:09 | -22.80482 | -59.33293 | 39874 ft | 449 kts | 318° |
| 2026-04-20 22:10 | -22.75466 | -59.37346 | 39877 ft | 451 kts | 318° |
| 2026-04-20 22:10 | -22.70432 | -59.41407 | 39872 ft | 450 kts | 317° |
| 2026-04-20 22:11 | -22.65412 | -59.45453 | 39873 ft | 449 kts | 317° |
| 2026-04-20 22:11 | -22.60428 | -59.49467 | 39872 ft | 449 kts | 317° |
| 2026-04-20 22:12 | -22.55414 | -59.53503 | 39866 ft | 449 kts | 317° |
| 2026-04-20 22:12 | -22.50404 | -59.57531 | 39868 ft | 449 kts | 317° |
| 2026-04-20 22:13 | -22.45394 | -59.61556 | 39862 ft | 448 kts | 318° |
| 2026-04-20 22:13 | -22.40400 | -59.65562 | 39862 ft | 445 kts | 318° |
| 2026-04-20 22:14 | -22.35452 | -59.69530 | 39862 ft | 445 kts | 318° |
| 2026-04-20 22:14 | -22.30481 | -59.73520 | 39859 ft | 445 kts | 318° |
| 2026-04-20 22:15 | -22.25513 | -59.77503 | 39856 ft | 445 kts | 318° |
| 2026-04-20 22:15 | -22.20541 | -59.81486 | 39856 ft | 445 kts | 318° |
| 2026-04-20 22:16 | -22.15568 | -59.85466 | 39852 ft | 445 kts | 318° |
| 2026-04-20 22:16 | -22.10594 | -59.89442 | 39852 ft | 445 kts | 318° |
| 2026-04-20 22:17 | -22.05620 | -59.93415 | 39854 ft | 445 kts | 318° |
| 2026-04-20 22:17 | -22.00649 | -59.97382 | 39856 ft | 445 kts | 318° |
| 2026-04-20 22:18 | -21.95682 | -60.01341 | 39853 ft | 443 kts | 318° |
| 2026-04-20 22:18 | -21.90754 | -60.05267 | 39854 ft | 443 kts | 318° |
| 2026-04-20 22:19 | -21.85771 | -60.09233 | 39848 ft | 442 kts | 318° |
| 2026-04-20 22:19 | -21.80823 | -60.13169 | 39848 ft | 442 kts | 318° |
| 2026-04-20 22:20 | -21.75900 | -60.17080 | 39848 ft | 442 kts | 318° |
| 2026-04-20 22:20 | -21.70947 | -60.21012 | 39848 ft | 442 kts | 318° |
| 2026-04-20 22:21 | -21.65991 | -60.24943 | 39848 ft | 442 kts | 318° |
| 2026-04-20 22:21 | -21.61041 | -60.28865 | 39848 ft | 442 kts | 318° |
| 2026-04-20 22:22 | -21.56089 | -60.32785 | 39845 ft | 442 kts | 318° |
| 2026-04-20 22:22 | -21.51133 | -60.36706 | 39845 ft | 442 kts | 318° |
| 2026-04-20 22:23 | -21.46178 | -60.40622 | 39845 ft | 442 kts | 319° |
| 2026-04-20 22:23 | -21.41224 | -60.44535 | 39845 ft | 442 kts | 319° |
| 2026-04-20 22:24 | -21.36268 | -60.48445 | 39845 ft | 442 kts | 319° |
| 2026-04-20 22:24 | -21.31314 | -60.52350 | 39842 ft | 442 kts | 319° |
| 2026-04-20 22:25 | -21.26361 | -60.56251 | 39842 ft | 442 kts | 319° |
| 2026-04-20 22:25 | -21.21409 | -60.60149 | 39842 ft | 442 kts | 319° |
| 2026-04-20 22:26 | -21.16449 | -60.64050 | 39838 ft | 442 kts | 319° |
| 2026-04-20 22:26 | -21.11517 | -60.67925 | 39837 ft | 442 kts | 319° |
| 2026-04-20 22:27 | -21.03964 | -60.73621 | 39837 ft | 444 kts | 322° |
| 2026-04-20 22:27 | -20.99621 | -60.76644 | 39829 ft | 444 kts | 323° |
| 2026-04-20 22:28 | -20.94462 | -60.80210 | 39837 ft | 444 kts | 323° |
| 2026-04-20 22:28 | -20.89241 | -60.83844 | 39840 ft | 446 kts | 323° |
| 2026-04-20 22:29 | -20.84067 | -60.87462 | 39838 ft | 447 kts | 322° |
| 2026-04-20 22:29 | -20.78862 | -60.91102 | 39837 ft | 447 kts | 322° |
| 2026-04-20 22:30 | -20.73663 | -60.94736 | 39830 ft | 447 kts | 323° |
| 2026-04-20 22:30 | -20.68453 | -60.98373 | 39840 ft | 447 kts | 323° |
| 2026-04-20 22:31 | -20.63233 | -61.02014 | 39835 ft | 448 kts | 323° |
| 2026-04-20 22:31 | -20.58020 | -61.05646 | 39839 ft | 447 kts | 323° |
| 2026-04-20 22:32 | -20.52818 | -61.09268 | 39836 ft | 446 kts | 323° |
| 2026-04-20 22:32 | -20.47612 | -61.12890 | 39831 ft | 446 kts | 323° |
| 2026-04-20 22:33 | -20.42410 | -61.16507 | 39837 ft | 447 kts | 323° |
| 2026-04-20 22:33 | -20.37193 | -61.20131 | 39840 ft | 447 kts | 323° |
| 2026-04-20 22:34 | -20.31978 | -61.23750 | 39837 ft | 447 kts | 323° |
| 2026-04-20 22:34 | -20.26766 | -61.27364 | 39840 ft | 447 kts | 323° |
| 2026-04-20 22:35 | -20.21550 | -61.30978 | 39833 ft | 447 kts | 323° |
| 2026-04-20 22:35 | -20.16359 | -61.34572 | 39847 ft | 448 kts | 324° |
| 2026-04-20 22:36 | -20.11145 | -61.38178 | 39845 ft | 447 kts | 324° |
| 2026-04-20 22:36 | -20.05926 | -61.41785 | 39845 ft | 447 kts | 324° |
| 2026-04-20 22:37 | -20.00710 | -61.45388 | 39845 ft | 447 kts | 324° |
| 2026-04-20 22:37 | -19.95495 | -61.48987 | 39840 ft | 447 kts | 324° |
| 2026-04-20 22:38 | -19.90267 | -61.52592 | 39848 ft | 447 kts | 324° |
| 2026-04-20 22:38 | -19.85058 | -61.56181 | 39851 ft | 446 kts | 324° |
| 2026-04-20 22:39 | -19.79870 | -61.59752 | 39848 ft | 446 kts | 324° |
| 2026-04-20 22:39 | -19.74659 | -61.63337 | 39851 ft | 446 kts | 324° |
| 2026-04-20 22:40 | -19.69441 | -61.66924 | 39850 ft | 446 kts | 324° |
| 2026-04-20 22:40 | -19.64226 | -61.70506 | 39848 ft | 446 kts | 324° |
| 2026-04-20 22:41 | -19.59054 | -61.74142 | 39848 ft | 446 kts | 323° |
| 2026-04-20 22:41 | -19.53917 | -61.77850 | 39848 ft | 446 kts | 323° |
| 2026-04-20 22:42 | -19.48793 | -61.81556 | 39848 ft | 446 kts | 323° |
| 2026-04-20 22:42 | -19.43659 | -61.85253 | 39850 ft | 446 kts | 323° |
| 2026-04-20 22:43 | -19.38545 | -61.88926 | 39851 ft | 448 kts | 323° |
| 2026-04-20 22:43 | -19.33385 | -61.92628 | 39853 ft | 449 kts | 323° |
| 2026-04-20 22:44 | -19.28206 | -61.96339 | 39851 ft | 449 kts | 323° |
| 2026-04-20 22:44 | -19.23037 | -62.00041 | 39851 ft | 448 kts | 323° |
| 2026-04-20 22:45 | -19.17866 | -62.03742 | 39851 ft | 448 kts | 323° |
| 2026-04-20 22:45 | -19.12702 | -62.07436 | 39850 ft | 448 kts | 324° |
| 2026-04-20 22:46 | -19.07525 | -62.11136 | 39851 ft | 448 kts | 324° |
| 2026-04-20 22:46 | -19.02384 | -62.14807 | 39851 ft | 448 kts | 324° |
| 2026-04-20 22:47 | -18.97213 | -62.18497 | 39848 ft | 448 kts | 324° |
| 2026-04-20 22:47 | -18.92041 | -62.22184 | 39848 ft | 448 kts | 324° |
| 2026-04-20 22:48 | -18.86868 | -62.25870 | 39846 ft | 449 kts | 324° |
| 2026-04-20 22:48 | -18.81681 | -62.29563 | 39846 ft | 450 kts | 324° |
| 2026-04-20 22:49 | -18.76489 | -62.33257 | 39848 ft | 450 kts | 324° |
| 2026-04-20 22:49 | -18.71297 | -62.36959 | 39848 ft | 450 kts | 324° |
| 2026-04-20 22:50 | -18.66124 | -62.40684 | 39842 ft | 450 kts | 324° |
| 2026-04-20 22:50 | -18.60995 | -62.44385 | 39839 ft | 450 kts | 324° |
| 2026-04-20 22:51 | -18.55814 | -62.48118 | 39849 ft | 451 kts | 324° |
| 2026-04-20 22:51 | -18.50630 | -62.51847 | 39848 ft | 452 kts | 324° |
| 2026-04-20 22:52 | -18.45436 | -62.55579 | 39846 ft | 452 kts | 325° |
| 2026-04-20 22:52 | -18.40242 | -62.59309 | 39848 ft | 452 kts | 325° |
| 2026-04-20 22:53 | -18.35051 | -62.63033 | 39848 ft | 452 kts | 325° |
| 2026-04-20 22:53 | -18.29858 | -62.66757 | 39848 ft | 452 kts | 325° |
| 2026-04-20 22:54 | -18.24665 | -62.70477 | 39847 ft | 452 kts | 325° |
| 2026-04-20 22:54 | -18.19468 | -62.74198 | 39851 ft | 452 kts | 325° |
| 2026-04-20 22:55 | -18.14270 | -62.77917 | 39852 ft | 452 kts | 325° |
| 2026-04-20 22:55 | -18.09072 | -62.81633 | 39851 ft | 452 kts | 325° |
| 2026-04-20 22:56 | -18.03904 | -62.85325 | 39850 ft | 452 kts | 326° |
| 2026-04-20 22:56 | -17.98707 | -62.89036 | 39854 ft | 452 kts | 326° |
| 2026-04-20 22:57 | -17.93501 | -62.92749 | 39855 ft | 452 kts | 326° |
| 2026-04-20 22:57 | -17.88296 | -62.96459 | 39858 ft | 452 kts | 326° |
| 2026-04-20 22:58 | -17.83085 | -63.00172 | 39858 ft | 452 kts | 326° |
| 2026-04-20 22:58 | -17.77873 | -63.03881 | 39850 ft | 452 kts | 326° |
| 2026-04-20 22:59 | -17.72644 | -63.07601 | 39857 ft | 456 kts | 326° |
| 2026-04-20 22:59 | -17.67381 | -63.11341 | 39856 ft | 457 kts | 326° |
| 2026-04-20 23:00 | -17.62107 | -63.15066 | 39856 ft | 456 kts | 327° |
| 2026-04-20 23:00 | -17.56735 | -63.18575 | 39871 ft | 454 kts | 328° |
| 2026-04-20 23:01 | -17.51327 | -63.21986 | 39865 ft | 454 kts | 329° |
| 2026-04-20 23:01 | -17.45900 | -63.25416 | 39881 ft | 458 kts | 328° |
| 2026-04-20 23:02 | -17.40430 | -63.28897 | 39864 ft | 461 kts | 328° |
| 2026-04-20 23:02 | -17.34988 | -63.32367 | 39866 ft | 461 kts | 328° |
| 2026-04-20 23:03 | -17.29514 | -63.35857 | 39866 ft | 461 kts | 328° |
| 2026-04-20 23:03 | -17.24033 | -63.39348 | 39868 ft | 461 kts | 328° |
| 2026-04-20 23:04 | -17.18563 | -63.42828 | 39859 ft | 461 kts | 328° |
| 2026-04-20 23:04 | -17.13086 | -63.46310 | 39861 ft | 459 kts | 328° |
| 2026-04-20 23:05 | -17.07648 | -63.49766 | 39863 ft | 457 kts | 328° |
| 2026-04-20 23:05 | -17.02212 | -63.53217 | 39863 ft | 457 kts | 328° |
| 2026-04-20 23:06 | -16.96777 | -63.56666 | 39862 ft | 457 kts | 328° |
| 2026-04-20 23:06 | -16.91344 | -63.60111 | 39878 ft | 457 kts | 328° |
| 2026-04-20 23:07 | -16.85903 | -63.63559 | 39866 ft | 457 kts | 328° |
| 2026-04-20 23:07 | -16.80473 | -63.66997 | 39881 ft | 457 kts | 328° |
| 2026-04-20 23:08 | -16.75038 | -63.70437 | 39868 ft | 457 kts | 328° |
| 2026-04-20 23:08 | -16.69599 | -63.73876 | 39868 ft | 457 kts | 328° |
| 2026-04-20 23:09 | -16.64163 | -63.77312 | 39862 ft | 456 kts | 329° |
| 2026-04-20 23:09 | -16.58709 | -63.80756 | 39875 ft | 461 kts | 329° |
| 2026-04-20 23:10 | -16.53248 | -63.84203 | 39866 ft | 462 kts | 329° |
| 2026-04-20 23:10 | -16.47751 | -63.87672 | 39877 ft | 462 kts | 329° |
| 2026-04-20 23:11 | -16.42262 | -63.91155 | 39865 ft | 462 kts | 328° |
| 2026-04-20 23:11 | -16.36776 | -63.94643 | 39876 ft | 462 kts | 328° |
| 2026-04-20 23:12 | -16.31284 | -63.98132 | 39880 ft | 463 kts | 329° |
| 2026-04-20 23:12 | -16.25763 | -64.01635 | 39877 ft | 465 kts | 329° |
| 2026-04-20 23:13 | -16.20240 | -64.05135 | 39874 ft | 465 kts | 329° |
| 2026-04-20 23:13 | -16.14725 | -64.08629 | 39874 ft | 464 kts | 329° |
| 2026-04-20 23:14 | -16.09211 | -64.12120 | 39869 ft | 463 kts | 329° |
| 2026-04-20 23:14 | -16.04635 | -64.15015 | 39875 ft | 464 kts | 329° |
| 2026-04-20 23:15 | -15.99111 | -64.18508 | 39880 ft | 465 kts | 329° |
| 2026-04-20 23:15 | -15.93580 | -64.22003 | 39866 ft | 465 kts | 329° |
| 2026-04-20 23:16 | -15.88055 | -64.25492 | 39879 ft | 465 kts | 329° |
| 2026-04-20 23:16 | -15.82529 | -64.28979 | 39876 ft | 465 kts | 329° |
| 2026-04-20 23:17 | -15.76995 | -64.32469 | 39877 ft | 465 kts | 329° |
| 2026-04-20 23:17 | -15.71466 | -64.35953 | 39865 ft | 465 kts | 329° |
| 2026-04-20 23:18 | -15.65938 | -64.39435 | 39874 ft | 464 kts | 329° |
| 2026-04-20 23:18 | -15.60421 | -64.42908 | 39879 ft | 464 kts | 329° |
| 2026-04-20 23:19 | -15.54891 | -64.46386 | 39866 ft | 464 kts | 329° |
| 2026-04-20 23:19 | -15.49379 | -64.49858 | 39881 ft | 464 kts | 329° |
| 2026-04-20 23:20 | -15.43871 | -64.53349 | 39864 ft | 465 kts | 329° |
| 2026-04-20 23:20 | -15.38384 | -64.56831 | 39864 ft | 465 kts | 329° |
| 2026-04-20 23:21 | -15.32830 | -64.60351 | 39864 ft | 465 kts | 329° |
| 2026-04-20 23:21 | -15.27342 | -64.63826 | 39879 ft | 466 kts | 329° |
| 2026-04-20 23:22 | -15.21811 | -64.67325 | 39877 ft | 466 kts | 329° |
| 2026-04-20 23:22 | -15.16289 | -64.70816 | 39863 ft | 465 kts | 329° |
| 2026-04-20 23:23 | -15.10757 | -64.74311 | 39881 ft | 466 kts | 329° |
| 2026-04-20 23:23 | -15.05217 | -64.77810 | 39859 ft | 466 kts | 329° |
| 2026-04-20 23:24 | -14.99675 | -64.81307 | 39866 ft | 467 kts | 329° |
| 2026-04-20 23:24 | -14.94131 | -64.84804 | 39861 ft | 466 kts | 329° |
| 2026-04-20 23:25 | -14.88590 | -64.88297 | 39859 ft | 466 kts | 329° |
| 2026-04-20 23:25 | -14.83055 | -64.91783 | 39861 ft | 466 kts | 329° |
| 2026-04-20 23:26 | -14.77496 | -64.95248 | 39857 ft | 467 kts | 329° |
| 2026-04-20 23:26 | -14.71894 | -64.98633 | 39880 ft | 467 kts | 330° |
| 2026-04-20 23:27 | -14.66268 | -65.02009 | 39879 ft | 467 kts | 330° |
| 2026-04-20 23:27 | -14.60645 | -65.05390 | 39878 ft | 467 kts | 330° |
| 2026-04-20 23:28 | -14.55034 | -65.08770 | 39881 ft | 467 kts | 330° |
| 2026-04-20 23:28 | -14.49451 | -65.12133 | 39871 ft | 467 kts | 330° |
| 2026-04-20 23:29 | -14.43838 | -65.15512 | 39877 ft | 467 kts | 330° |
| 2026-04-20 23:29 | -14.38222 | -65.18891 | 39872 ft | 467 kts | 330° |
| 2026-04-20 23:30 | -14.32606 | -65.22267 | 39881 ft | 467 kts | 330° |
| 2026-04-20 23:30 | -14.26987 | -65.25644 | 39882 ft | 467 kts | 330° |
| 2026-04-20 23:31 | -14.21361 | -65.29022 | 39872 ft | 469 kts | 329° |
| 2026-04-20 23:31 | -14.15725 | -65.32405 | 39878 ft | 468 kts | 330° |
| 2026-04-20 23:32 | -14.10113 | -65.35771 | 39874 ft | 466 kts | 330° |
| 2026-04-20 23:32 | -14.04509 | -65.39154 | 39878 ft | 466 kts | 329° |
| 2026-04-20 23:33 | -13.98937 | -65.42562 | 39874 ft | 466 kts | 329° |
| 2026-04-20 23:33 | -13.93358 | -65.45980 | 39885 ft | 466 kts | 329° |
| 2026-04-20 23:34 | -13.87783 | -65.49390 | 39874 ft | 466 kts | 329° |
| 2026-04-20 23:34 | -13.82198 | -65.52800 | 39878 ft | 466 kts | 329° |
| 2026-04-20 23:35 | -13.73828 | -65.57905 | 39878 ft | 466 kts | 329° |
| 2026-04-20 23:36 | -13.68292 | -65.61280 | 39879 ft | 466 kts | 329° |
| 2026-04-20 23:36 | -13.62710 | -65.64680 | 39878 ft | 466 kts | 330° |
| 2026-04-20 23:37 | -13.57136 | -65.68074 | 39879 ft | 466 kts | 329° |
| 2026-04-20 23:37 | -13.51567 | -65.71470 | 39886 ft | 465 kts | 329° |
| 2026-04-20 23:38 | -13.46002 | -65.74860 | 39875 ft | 465 kts | 329° |
| 2026-04-20 23:38 | -13.40428 | -65.78250 | 39883 ft | 465 kts | 329° |
| 2026-04-20 23:39 | -13.34857 | -65.81634 | 39883 ft | 466 kts | 330° |
| 2026-04-20 23:39 | -13.29264 | -65.85030 | 39879 ft | 469 kts | 329° |
| 2026-04-20 23:40 | -13.23623 | -65.88454 | 39873 ft | 471 kts | 329° |
| 2026-04-20 23:40 | -13.17977 | -65.91878 | 39880 ft | 471 kts | 329° |
| 2026-04-20 23:41 | -13.12331 | -65.95301 | 39876 ft | 470 kts | 329° |
| 2026-04-20 23:41 | -13.06760 | -65.98677 | 39874 ft | 467 kts | 329° |
| 2026-04-20 23:42 | -13.01163 | -66.02067 | 39872 ft | 468 kts | 329° |
| 2026-04-20 23:42 | -12.95532 | -66.05475 | 39883 ft | 472 kts | 329° |
| 2026-04-20 23:43 | -12.89865 | -66.08903 | 39884 ft | 473 kts | 329° |
| 2026-04-20 23:43 | -12.84191 | -66.12334 | 39882 ft | 473 kts | 329° |
| 2026-04-20 23:44 | -12.78512 | -66.15766 | 39880 ft | 474 kts | 329° |
| 2026-04-20 23:44 | -12.72841 | -66.19191 | 39881 ft | 473 kts | 329° |
| 2026-04-20 23:45 | -12.67170 | -66.22615 | 39888 ft | 474 kts | 330° |
| 2026-04-20 23:45 | -12.61480 | -66.26048 | 39889 ft | 474 kts | 330° |
| 2026-04-20 23:46 | -12.55808 | -66.29469 | 39891 ft | 472 kts | 330° |
| 2026-04-20 23:46 | -12.50160 | -66.32873 | 39890 ft | 471 kts | 330° |
| 2026-04-20 23:47 | -12.44513 | -66.36275 | 39876 ft | 471 kts | 330° |
| 2026-04-20 23:47 | -12.38899 | -66.39655 | 39883 ft | 471 kts | 330° |
| 2026-04-20 23:48 | -12.33197 | -66.43087 | 39890 ft | 473 kts | 330° |
| 2026-04-20 23:48 | -12.27556 | -66.46480 | 39895 ft | 474 kts | 330° |
| 2026-04-20 23:49 | -12.21874 | -66.49896 | 39897 ft | 474 kts | 330° |
| 2026-04-20 23:49 | -12.16194 | -66.53309 | 39891 ft | 474 kts | 330° |
| 2026-04-20 23:50 | -12.10508 | -66.56724 | 39898 ft | 474 kts | 330° |
| 2026-04-20 23:50 | -12.04828 | -66.60134 | 39897 ft | 473 kts | 330° |
| 2026-04-20 23:51 | -11.99155 | -66.63538 | 39898 ft | 473 kts | 330° |
| 2026-04-20 23:51 | -11.93463 | -66.66952 | 39898 ft | 473 kts | 330° |
| 2026-04-20 23:52 | -11.87786 | -66.70355 | 39896 ft | 473 kts | 330° |
| 2026-04-20 23:52 | -11.82108 | -66.73756 | 39891 ft | 473 kts | 330° |
| 2026-04-20 23:53 | -11.76458 | -66.77139 | 39896 ft | 473 kts | 330° |
| 2026-04-20 23:53 | -11.70782 | -66.80537 | 39897 ft | 473 kts | 331° |
| 2026-04-20 23:54 | -11.65105 | -66.83934 | 39894 ft | 473 kts | 331° |
| 2026-04-20 23:54 | -11.59432 | -66.87326 | 39897 ft | 473 kts | 331° |
| 2026-04-20 23:55 | -11.53754 | -66.90720 | 39898 ft | 473 kts | 330° |
| 2026-04-20 23:55 | -11.48074 | -66.94113 | 39898 ft | 473 kts | 330° |
| 2026-04-20 23:56 | -11.42395 | -66.97504 | 39897 ft | 472 kts | 331° |
| 2026-04-20 23:56 | -11.36724 | -67.00889 | 39896 ft | 472 kts | 331° |
| 2026-04-20 23:57 | -11.31094 | -67.04247 | 39899 ft | 472 kts | 331° |
| 2026-04-20 23:57 | -11.25426 | -67.07627 | 39898 ft | 472 kts | 331° |
| 2026-04-20 23:58 | -11.19756 | -67.11007 | 39896 ft | 472 kts | 331° |
| 2026-04-20 23:58 | -11.14088 | -67.14383 | 39897 ft | 472 kts | 331° |
| 2026-04-20 23:59 | -11.08424 | -67.17756 | 39898 ft | 472 kts | 331° |
| 2026-04-20 23:59 | -11.02751 | -67.21133 | 39900 ft | 472 kts | 331° |
| 2026-04-21 00:00 | -10.97075 | -67.24509 | 39901 ft | 472 kts | 331° |
| 2026-04-21 00:00 | -10.91404 | -67.27882 | 39905 ft | 472 kts | 331° |
| 2026-04-21 00:01 | -10.85736 | -67.31251 | 39903 ft | 472 kts | 331° |
| 2026-04-21 00:01 | -10.80061 | -67.34623 | 39900 ft | 472 kts | 331° |
| 2026-04-21 00:02 | -10.74430 | -67.37967 | 39903 ft | 472 kts | 331° |
| 2026-04-21 00:02 | -10.68754 | -67.41336 | 39893 ft | 472 kts | 331° |
| 2026-04-21 00:03 | -10.63077 | -67.44705 | 39897 ft | 472 kts | 331° |
| 2026-04-21 00:03 | -10.57399 | -67.48072 | 39897 ft | 472 kts | 331° |
| 2026-04-21 00:04 | -10.51757 | -67.51417 | 39900 ft | 472 kts | 331° |
| 2026-04-21 00:04 | -10.47013 | -67.54235 | 39897 ft | 472 kts | 331° |
| 2026-04-21 00:05 | -10.40457 | -67.58224 | 39902 ft | 472 kts | 330° |
| 2026-04-21 00:05 | -10.35756 | -67.61110 | 39901 ft | 472 kts | 330° |
| 2026-04-21 00:06 | -10.30159 | -67.64540 | 39896 ft | 471 kts | 330° |
| 2026-04-21 00:06 | -10.24534 | -67.67979 | 39893 ft | 472 kts | 330° |
| 2026-04-21 00:07 | -10.18916 | -67.71409 | 39903 ft | 472 kts | 330° |
| 2026-04-21 00:07 | -10.13290 | -67.74843 | 39899 ft | 472 kts | 330° |
| 2026-04-21 00:08 | -10.07659 | -67.78278 | 39907 ft | 473 kts | 330° |
| 2026-04-21 00:08 | -10.02006 | -67.81725 | 39908 ft | 474 kts | 330° |
| 2026-04-21 00:09 | -9.96396 | -67.85145 | 39914 ft | 474 kts | 330° |
| 2026-04-21 00:09 | -9.90740 | -67.88591 | 39909 ft | 473 kts | 331° |
| 2026-04-21 00:10 | -9.84735 | -67.91259 | 39916 ft | 470 kts | 343° |
| 2026-04-21 00:10 | -9.78468 | -67.93166 | 39903 ft | 471 kts | 346° |
| 2026-04-21 00:11 | -9.72154 | -67.94928 | 39907 ft | 471 kts | 346° |
| 2026-04-21 00:11 | -9.65864 | -67.96674 | 39907 ft | 471 kts | 346° |
| 2026-04-21 00:12 | -9.59549 | -67.98446 | 39905 ft | 471 kts | 346° |
| 2026-04-21 00:12 | -9.53238 | -68.00228 | 39901 ft | 471 kts | 346° |
| 2026-04-21 00:13 | -9.46923 | -68.02014 | 39905 ft | 471 kts | 346° |
| 2026-04-21 00:13 | -9.40608 | -68.03799 | 39903 ft | 471 kts | 346° |
| 2026-04-21 00:14 | -9.34291 | -68.05583 | 39905 ft | 471 kts | 346° |
| 2026-04-21 00:14 | -9.27978 | -68.07364 | 39904 ft | 471 kts | 346° |
| 2026-04-21 00:15 | -9.21714 | -68.09143 | 39912 ft | 471 kts | 346° |
| 2026-04-21 00:15 | -9.15430 | -68.11010 | 39906 ft | 471 kts | 345° |
| 2026-04-21 00:16 | -9.09140 | -68.12907 | 39907 ft | 471 kts | 345° |
| 2026-04-21 00:16 | -9.02853 | -68.14798 | 39909 ft | 471 kts | 345° |
| 2026-04-21 00:17 | -8.96557 | -68.16684 | 39908 ft | 471 kts | 345° |
| 2026-04-21 00:17 | -8.90271 | -68.18564 | 39911 ft | 471 kts | 345° |
| 2026-04-21 00:18 | -8.84015 | -68.20434 | 39911 ft | 472 kts | 345° |
| 2026-04-21 00:18 | -8.77719 | -68.22315 | 39906 ft | 472 kts | 345° |
| 2026-04-21 00:19 | -8.71418 | -68.24198 | 39907 ft | 472 kts | 345° |
| 2026-04-21 00:19 | -8.65109 | -68.26082 | 39911 ft | 472 kts | 345° |
| 2026-04-21 00:20 | -8.58813 | -68.27962 | 39913 ft | 472 kts | 345° |
| 2026-04-21 00:20 | -8.52511 | -68.29843 | 39907 ft | 472 kts | 345° |
| 2026-04-21 00:21 | -8.46245 | -68.31712 | 39910 ft | 472 kts | 345° |
| 2026-04-21 00:21 | -8.39946 | -68.33591 | 39908 ft | 472 kts | 345° |
| 2026-04-21 00:22 | -8.33637 | -68.35472 | 39903 ft | 473 kts | 345° |
| 2026-04-21 00:22 | -8.27315 | -68.37356 | 39911 ft | 473 kts | 345° |
| 2026-04-21 00:23 | -8.21002 | -68.39237 | 39914 ft | 473 kts | 345° |
| 2026-04-21 00:23 | -8.14724 | -68.41107 | 39914 ft | 473 kts | 345° |
| 2026-04-21 00:24 | -8.08411 | -68.42986 | 39910 ft | 472 kts | 346° |
| 2026-04-21 00:24 | -8.02107 | -68.44863 | 39913 ft | 472 kts | 346° |
| 2026-04-21 00:25 | -7.95801 | -68.46739 | 39914 ft | 472 kts | 346° |
| 2026-04-21 00:25 | -7.89482 | -68.48619 | 39913 ft | 472 kts | 346° |
| 2026-04-21 00:26 | -7.83216 | -68.50482 | 39911 ft | 472 kts | 346° |
| 2026-04-21 00:26 | -7.76908 | -68.52357 | 39913 ft | 472 kts | 346° |
| 2026-04-21 00:27 | -7.70607 | -68.54229 | 39916 ft | 473 kts | 346° |
| 2026-04-21 00:27 | -7.64286 | -68.56107 | 39916 ft | 473 kts | 346° |
| 2026-04-21 00:28 | -7.57967 | -68.57981 | 39910 ft | 473 kts | 346° |
| 2026-04-21 00:28 | -7.51633 | -68.59854 | 39917 ft | 473 kts | 346° |
| 2026-04-21 00:29 | -7.45311 | -68.61723 | 39919 ft | 473 kts | 346° |
| 2026-04-21 00:29 | -7.38993 | -68.63591 | 39913 ft | 473 kts | 346° |
| 2026-04-21 00:30 | -7.32709 | -68.65449 | 39921 ft | 473 kts | 346° |
| 2026-04-21 00:30 | -7.26393 | -68.67315 | 39923 ft | 473 kts | 346° |
| 2026-04-21 00:31 | -7.20070 | -68.69183 | 39918 ft | 473 kts | 346° |
| 2026-04-21 00:31 | -7.13751 | -68.71049 | 39918 ft | 473 kts | 346° |
| 2026-04-21 00:32 | -7.07427 | -68.72916 | 39917 ft | 473 kts | 346° |
| 2026-04-21 00:32 | -7.01112 | -68.74780 | 39921 ft | 472 kts | 346° |
| 2026-04-21 00:33 | -6.94843 | -68.76630 | 39919 ft | 472 kts | 346° |
| 2026-04-21 00:33 | -6.88532 | -68.78492 | 39914 ft | 472 kts | 346° |
| 2026-04-21 00:34 | -6.82183 | -68.80364 | 39916 ft | 472 kts | 346° |
| 2026-04-21 00:34 | -6.75916 | -68.82212 | 39912 ft | 472 kts | 346° |
| 2026-04-21 00:35 | -6.69616 | -68.84069 | 39910 ft | 472 kts | 346° |
| 2026-04-21 00:35 | -6.63297 | -68.85931 | 39914 ft | 473 kts | 346° |
| 2026-04-21 00:36 | -6.56981 | -68.87786 | 39922 ft | 472 kts | 346° |
| 2026-04-21 00:36 | -6.50672 | -68.89647 | 39922 ft | 472 kts | 345° |
| 2026-04-21 00:37 | -6.44360 | -68.91518 | 39926 ft | 472 kts | 345° |
| 2026-04-21 00:37 | -6.38091 | -68.93376 | 39923 ft | 472 kts | 345° |
| 2026-04-21 00:38 | -6.31781 | -68.95244 | 39924 ft | 473 kts | 345° |
| 2026-04-21 00:38 | -6.25453 | -68.97117 | 39926 ft | 473 kts | 345° |
| 2026-04-21 00:39 | -6.19131 | -68.98988 | 39923 ft | 473 kts | 345° |
| 2026-04-21 00:39 | -6.12807 | -69.00859 | 39922 ft | 473 kts | 345° |
| 2026-04-21 00:40 | -6.06480 | -69.02730 | 39924 ft | 473 kts | 345° |
| 2026-04-21 00:40 | -6.00184 | -69.04591 | 39928 ft | 474 kts | 345° |
| 2026-04-21 00:41 | -5.93850 | -69.06463 | 39928 ft | 474 kts | 345° |
| 2026-04-21 00:41 | -5.87508 | -69.08337 | 39925 ft | 474 kts | 345° |
| 2026-04-21 00:42 | -5.81173 | -69.10210 | 39932 ft | 474 kts | 345° |
| 2026-04-21 00:42 | -5.74842 | -69.12080 | 39931 ft | 474 kts | 345° |
| 2026-04-21 00:43 | -5.68504 | -69.13951 | 39927 ft | 474 kts | 345° |
| 2026-04-21 00:43 | -5.62196 | -69.15814 | 39925 ft | 476 kts | 345° |
| 2026-04-21 00:44 | -5.55839 | -69.17690 | 39929 ft | 476 kts | 345° |
| 2026-04-21 00:44 | -5.49473 | -69.19569 | 39926 ft | 476 kts | 345° |
| 2026-04-21 00:45 | -5.39920 | -69.22387 | 39926 ft | 476 kts | 345° |
| 2026-04-21 00:45 | -5.33562 | -69.24263 | 39924 ft | 476 kts | 345° |
| 2026-04-21 00:46 | -5.27231 | -69.26130 | 39924 ft | 477 kts | 345° |
| 2026-04-21 00:46 | -5.20863 | -69.28007 | 39923 ft | 477 kts | 345° |
| 2026-04-21 00:47 | -5.14483 | -69.29888 | 39919 ft | 477 kts | 345° |
| 2026-04-21 00:47 | -5.08113 | -69.31765 | 39929 ft | 477 kts | 345° |
| 2026-04-21 00:48 | -5.01780 | -69.33631 | 39932 ft | 477 kts | 345° |
| 2026-04-21 00:48 | -4.95405 | -69.35509 | 39935 ft | 477 kts | 346° |
| 2026-04-21 00:49 | -4.89034 | -69.37386 | 39934 ft | 478 kts | 346° |
| 2026-04-21 00:49 | -4.82643 | -69.39268 | 39932 ft | 478 kts | 346° |
| 2026-04-21 00:50 | -4.76265 | -69.41145 | 39929 ft | 478 kts | 346° |
| 2026-04-21 00:50 | -4.69914 | -69.43015 | 39931 ft | 478 kts | 346° |
| 2026-04-21 00:51 | -4.63541 | -69.44913 | 39936 ft | 478 kts | 346° |
| 2026-04-21 00:51 | -4.57166 | -69.46828 | 39928 ft | 479 kts | 346° |
| 2026-04-21 00:52 | -4.50771 | -69.48749 | 39932 ft | 479 kts | 346° |
| 2026-04-21 00:52 | -4.44399 | -69.50661 | 39929 ft | 479 kts | 346° |
| 2026-04-21 00:53 | -4.38002 | -69.52578 | 39919 ft | 479 kts | 346° |
| 2026-04-21 00:53 | -4.32691 | -69.54170 | 39916 ft | 479 kts | 345° |
| 2026-04-21 00:54 | -4.26298 | -69.56086 | 39925 ft | 479 kts | 346° |
| 2026-04-21 00:54 | -4.19898 | -69.58003 | 39921 ft | 480 kts | 346° |
| 2026-04-21 00:55 | -4.13492 | -69.59922 | 39925 ft | 480 kts | 346° |
| 2026-04-21 00:55 | -4.07094 | -69.61839 | 39911 ft | 480 kts | 346° |
| 2026-04-21 00:56 | -4.00681 | -69.63761 | 39922 ft | 480 kts | 346° |
| 2026-04-21 00:56 | -3.94316 | -69.65669 | 39927 ft | 480 kts | 346° |
| 2026-04-21 00:57 | -3.87912 | -69.67589 | 39920 ft | 480 kts | 346° |
| 2026-04-21 00:57 | -3.81510 | -69.69507 | 39920 ft | 480 kts | 346° |
| 2026-04-21 00:58 | -3.75106 | -69.71425 | 39917 ft | 480 kts | 346° |
| 2026-04-21 00:58 | -3.68702 | -69.73343 | 39929 ft | 480 kts | 346° |
| 2026-04-21 00:59 | -3.62329 | -69.75252 | 39928 ft | 480 kts | 346° |
| 2026-04-21 00:59 | -3.55918 | -69.77172 | 39922 ft | 480 kts | 346° |
| 2026-04-21 01:00 | -3.49509 | -69.79091 | 39932 ft | 480 kts | 346° |
| 2026-04-21 01:00 | -3.43138 | -69.80980 | 39934 ft | 480 kts | 346° |
| 2026-04-21 01:01 | -3.36724 | -69.82862 | 39922 ft | 480 kts | 346° |
| 2026-04-21 01:01 | -3.30310 | -69.84744 | 39928 ft | 480 kts | 346° |
| 2026-04-21 01:02 | -3.23900 | -69.86627 | 39929 ft | 480 kts | 346° |
| 2026-04-21 01:02 | -3.17536 | -69.88497 | 39920 ft | 480 kts | 346° |
| 2026-04-21 01:03 | -3.11119 | -69.90384 | 39931 ft | 480 kts | 346° |
| 2026-04-21 01:03 | -3.04709 | -69.92267 | 39930 ft | 480 kts | 346° |
| 2026-04-21 01:04 | -2.98296 | -69.94151 | 39922 ft | 480 kts | 346° |
| 2026-04-21 01:04 | -2.91916 | -69.96026 | 39927 ft | 480 kts | 346° |
| 2026-04-21 01:05 | -2.85517 | -69.97906 | 39930 ft | 480 kts | 346° |
| 2026-04-21 01:05 | -2.79108 | -69.99788 | 39929 ft | 479 kts | 346° |
| 2026-04-21 01:06 | -2.72708 | -70.01700 | 39920 ft | 480 kts | 343° |
| 2026-04-21 01:06 | -2.66565 | -70.04408 | 39927 ft | 483 kts | 337° |
| 2026-04-21 01:07 | -2.60540 | -70.07385 | 39925 ft | 483 kts | 336° |
| 2026-04-21 01:07 | -2.54560 | -70.10402 | 39923 ft | 483 kts | 336° |
| 2026-04-21 01:08 | -2.48534 | -70.13435 | 39931 ft | 483 kts | 336° |
| 2026-04-21 01:08 | -2.42547 | -70.16434 | 39924 ft | 484 kts | 336° |
| 2026-04-21 01:09 | -2.36507 | -70.19452 | 39926 ft | 485 kts | 336° |
| 2026-04-21 01:09 | -2.30472 | -70.22468 | 39929 ft | 484 kts | 336° |
| 2026-04-21 01:10 | -2.24442 | -70.25481 | 39933 ft | 484 kts | 336° |
| 2026-04-21 01:10 | -2.18411 | -70.28495 | 39936 ft | 484 kts | 336° |
| 2026-04-21 01:11 | -2.12378 | -70.31509 | 39928 ft | 484 kts | 336° |
| 2026-04-21 01:11 | -2.06350 | -70.34521 | 39930 ft | 484 kts | 336° |
| 2026-04-21 01:12 | -2.00359 | -70.37514 | 39929 ft | 484 kts | 336° |
| 2026-04-21 01:12 | -1.94324 | -70.40528 | 39930 ft | 484 kts | 336° |
| 2026-04-21 01:13 | -1.88290 | -70.43542 | 39930 ft | 484 kts | 336° |
| 2026-04-21 01:13 | -1.82259 | -70.46555 | 39929 ft | 484 kts | 336° |
| 2026-04-21 01:14 | -1.76228 | -70.49566 | 39929 ft | 485 kts | 335° |
| 2026-04-21 01:14 | -1.70183 | -70.52585 | 39929 ft | 485 kts | 335° |
| 2026-04-21 01:15 | -1.64139 | -70.55603 | 39928 ft | 485 kts | 335° |
| 2026-04-21 01:15 | -1.58098 | -70.58620 | 39929 ft | 486 kts | 335° |
| 2026-04-21 01:16 | -1.52089 | -70.61620 | 39931 ft | 485 kts | 335° |
| 2026-04-21 01:16 | -1.46030 | -70.64644 | 39933 ft | 485 kts | 335° |
| 2026-04-21 01:17 | -1.39987 | -70.67661 | 39933 ft | 486 kts | 335° |
| 2026-04-21 01:17 | -1.33930 | -70.70684 | 39932 ft | 486 kts | 335° |
| 2026-04-21 01:18 | -1.27915 | -70.73687 | 39932 ft | 486 kts | 335° |
| 2026-04-21 01:18 | -1.21861 | -70.76709 | 39931 ft | 486 kts | 335° |
| 2026-04-21 01:19 | -1.15807 | -70.79731 | 39933 ft | 486 kts | 335° |
| 2026-04-21 01:19 | -1.09755 | -70.82751 | 39933 ft | 486 kts | 335° |
| 2026-04-21 01:20 | -1.03708 | -70.85769 | 39937 ft | 485 kts | 335° |
| 2026-04-21 01:20 | -0.97700 | -70.88767 | 39934 ft | 484 kts | 335° |
| 2026-04-21 01:21 | -0.91673 | -70.91775 | 39933 ft | 484 kts | 335° |
| 2026-04-21 01:21 | -0.85640 | -70.94788 | 39934 ft | 484 kts | 335° |
| 2026-04-21 01:22 | -0.79619 | -70.97796 | 39935 ft | 484 kts | 335° |
| 2026-04-21 01:22 | -0.73591 | -71.00810 | 39934 ft | 484 kts | 335° |
| 2026-04-21 01:23 | -0.67572 | -71.03815 | 39946 ft | 484 kts | 335° |
| 2026-04-21 01:23 | -0.61580 | -71.06796 | 39933 ft | 483 kts | 335° |
| 2026-04-21 01:24 | -0.55562 | -71.09790 | 39936 ft | 483 kts | 335° |
| 2026-04-21 01:24 | -0.49542 | -71.12792 | 39936 ft | 483 kts | 335° |
| 2026-04-21 01:25 | -0.43518 | -71.15797 | 39939 ft | 483 kts | 335° |
| 2026-04-21 01:25 | -0.37500 | -71.18800 | 39939 ft | 483 kts | 335° |
| 2026-04-21 01:26 | -0.31511 | -71.21788 | 39936 ft | 483 kts | 335° |
| 2026-04-21 01:26 | -0.25488 | -71.24792 | 39940 ft | 483 kts | 335° |
| 2026-04-21 01:27 | -0.19468 | -71.27796 | 39937 ft | 483 kts | 335° |
| 2026-04-21 01:27 | -0.13448 | -71.30799 | 39957 ft | 483 kts | 335° |
| 2026-04-21 01:28 | -0.07422 | -71.33805 | 39942 ft | 483 kts | 335° |
| 2026-04-21 01:28 | -0.01399 | -71.36809 | 39940 ft | 483 kts | 335° |
| 2026-04-21 01:29 | 0.04586 | -71.39795 | 39956 ft | 483 kts | 334° |
| 2026-04-21 01:29 | 0.10593 | -71.42792 | 39942 ft | 482 kts | 334° |
| 2026-04-21 01:30 | 0.16598 | -71.45788 | 39958 ft | 482 kts | 334° |
| 2026-04-21 01:30 | 0.22610 | -71.48787 | 39944 ft | 482 kts | 334° |
| 2026-04-21 01:31 | 0.28620 | -71.51785 | 39948 ft | 482 kts | 334° |
| 2026-04-21 01:31 | 0.34624 | -71.54780 | 39948 ft | 482 kts | 334° |
| 2026-04-21 01:32 | 0.40599 | -71.57761 | 39963 ft | 483 kts | 334° |
| 2026-04-21 01:32 | 0.46616 | -71.60763 | 39943 ft | 484 kts | 334° |
| 2026-04-21 01:33 | 0.52639 | -71.63768 | 39944 ft | 484 kts | 334° |
| 2026-04-21 01:33 | 0.58679 | -71.66782 | 39945 ft | 484 kts | 334° |
| 2026-04-21 01:34 | 0.64662 | -71.69767 | 39957 ft | 484 kts | 334° |
| 2026-04-21 01:34 | 0.70696 | -71.72777 | 39947 ft | 484 kts | 334° |
| 2026-04-21 01:35 | 0.76722 | -71.75784 | 39950 ft | 485 kts | 334° |
| 2026-04-21 01:35 | 0.82768 | -71.78800 | 39949 ft | 485 kts | 334° |
| 2026-04-21 01:36 | 0.88811 | -71.81816 | 39946 ft | 486 kts | 334° |
| 2026-04-21 01:36 | 0.94824 | -71.84817 | 39947 ft | 485 kts | 334° |
| 2026-04-21 01:37 | 1.00871 | -71.87834 | 39951 ft | 485 kts | 334° |
| 2026-04-21 01:37 | 1.06920 | -71.90852 | 39947 ft | 485 kts | 334° |
| 2026-04-21 01:38 | 1.12970 | -71.93872 | 39948 ft | 486 kts | 334° |
| 2026-04-21 01:38 | 1.19035 | -71.96898 | 39945 ft | 487 kts | 334° |
| 2026-04-21 01:39 | 1.25102 | -71.99926 | 39950 ft | 487 kts | 334° |
| 2026-04-21 01:39 | 1.31140 | -72.02941 | 39947 ft | 487 kts | 334° |
| 2026-04-21 01:40 | 1.37219 | -72.05975 | 39947 ft | 487 kts | 334° |
| 2026-04-21 01:40 | 1.43289 | -72.09005 | 39947 ft | 487 kts | 334° |
| 2026-04-21 01:41 | 1.49321 | -72.12017 | 39948 ft | 486 kts | 334° |
| 2026-04-21 01:41 | 1.55359 | -72.15031 | 39950 ft | 484 kts | 334° |
| 2026-04-21 01:42 | 1.60364 | -72.17530 | 39949 ft | 483 kts | 334° |
| 2026-04-21 01:42 | 1.66390 | -72.20540 | 39950 ft | 484 kts | 334° |
| 2026-04-21 01:43 | 1.73404 | -72.24042 | 39952 ft | 484 kts | 334° |
| 2026-04-21 01:43 | 1.78407 | -72.26541 | 39951 ft | 484 kts | 334° |
| 2026-04-21 01:44 | 1.84446 | -72.29556 | 39951 ft | 484 kts | 334° |
| 2026-04-21 01:44 | 1.90471 | -72.32566 | 39948 ft | 484 kts | 334° |
| 2026-04-21 01:45 | 1.96503 | -72.35579 | 39951 ft | 484 kts | 334° |
| 2026-04-21 01:45 | 2.02490 | -72.38570 | 39951 ft | 484 kts | 334° |
| 2026-04-21 01:46 | 2.08529 | -72.41587 | 39952 ft | 484 kts | 334° |
| 2026-04-21 01:46 | 2.14551 | -72.44595 | 39960 ft | 483 kts | 334° |
| 2026-04-21 01:47 | 2.20534 | -72.47585 | 39951 ft | 484 kts | 334° |
| 2026-04-21 01:47 | 2.26556 | -72.50594 | 39947 ft | 484 kts | 334° |
| 2026-04-21 01:48 | 2.32591 | -72.53610 | 39939 ft | 484 kts | 334° |
| 2026-04-21 01:48 | 2.38618 | -72.56623 | 39929 ft | 484 kts | 334° |
| 2026-04-21 01:49 | 2.44649 | -72.59637 | 39926 ft | 484 kts | 334° |
| 2026-04-21 01:49 | 2.50674 | -72.62650 | 39908 ft | 484 kts | 334° |
| 2026-04-21 01:50 | 2.56535 | -72.65874 | 39916 ft | 483 kts | 329° |
| 2026-04-21 01:50 | 2.62283 | -72.69358 | 39908 ft | 482 kts | 329° |
| 2026-04-21 01:51 | 2.68027 | -72.72830 | 39930 ft | 482 kts | 329° |
| 2026-04-21 01:51 | 2.73780 | -72.76296 | 39941 ft | 482 kts | 329° |
| 2026-04-21 01:52 | 2.82369 | -72.81466 | 40008 ft | 482 kts | 329° |
| 2026-04-21 01:53 | 2.88120 | -72.84928 | 40006 ft | 482 kts | 329° |
| 2026-04-21 01:53 | 2.93882 | -72.88396 | 40000 ft | 482 kts | 329° |
| 2026-04-21 01:54 | 2.99642 | -72.91863 | 40018 ft | 482 kts | 329° |
| 2026-04-21 01:54 | 3.05386 | -72.95325 | 40028 ft | 482 kts | 329° |
| 2026-04-21 01:55 | 3.11078 | -72.98756 | 40021 ft | 482 kts | 329° |
| 2026-04-21 01:55 | 3.16786 | -73.02194 | 40033 ft | 482 kts | 329° |
| 2026-04-21 01:56 | 3.22536 | -73.05657 | 40030 ft | 482 kts | 329° |
| 2026-04-21 01:56 | 3.28282 | -73.09118 | 40044 ft | 482 kts | 329° |
| 2026-04-21 01:57 | 3.34030 | -73.12581 | 40054 ft | 482 kts | 329° |
| 2026-04-21 01:57 | 3.39772 | -73.16041 | 40052 ft | 482 kts | 329° |
| 2026-04-21 01:58 | 3.45491 | -73.19487 | 40052 ft | 482 kts | 329° |
| 2026-04-21 01:58 | 3.51243 | -73.22954 | 40062 ft | 482 kts | 329° |
| 2026-04-21 01:59 | 3.56993 | -73.26420 | 40065 ft | 482 kts | 329° |
| 2026-04-21 01:59 | 3.62748 | -73.29889 | 40065 ft | 482 kts | 329° |
| 2026-04-21 02:00 | 3.68466 | -73.33337 | 40078 ft | 481 kts | 329° |
| 2026-04-21 02:00 | 3.74199 | -73.36794 | 40074 ft | 482 kts | 329° |
| 2026-04-21 02:01 | 3.79951 | -73.40264 | 40098 ft | 482 kts | 329° |
| 2026-04-21 02:01 | 3.85696 | -73.43730 | 40088 ft | 482 kts | 329° |
| 2026-04-21 02:01 | 3.88564 | -73.45460 | 39625 ft | 481 kts | 329° |
| 2026-04-21 02:02 | 3.91433 | -73.47191 | 39062 ft | 481 kts | 329° |
| 2026-04-21 02:02 | 3.94311 | -73.48928 | 38472 ft | 481 kts | 329° |
| 2026-04-21 02:02 | 3.97170 | -73.50653 | 37892 ft | 480 kts | 329° |
| 2026-04-21 02:02 | 4.00033 | -73.52380 | 37347 ft | 480 kts | 329° |
| 2026-04-21 02:03 | 4.02858 | -73.54085 | 36789 ft | 479 kts | 329° |
| 2026-04-21 02:03 | 4.05709 | -73.55806 | 36216 ft | 479 kts | 329° |
| 2026-04-21 02:03 | 4.08571 | -73.57534 | 35611 ft | 480 kts | 329° |
| 2026-04-21 02:03 | 4.11437 | -73.59264 | 34986 ft | 481 kts | 329° |
| 2026-04-21 02:04 | 4.14315 | -73.61001 | 34312 ft | 484 kts | 329° |
| 2026-04-21 02:04 | 4.17212 | -73.62751 | 33532 ft | 488 kts | 329° |
| 2026-04-21 02:04 | 4.20126 | -73.64510 | 32724 ft | 491 kts | 329° |
| 2026-04-21 02:04 | 4.23037 | -73.66309 | 32187 ft | 493 kts | 325° |
| 2026-04-21 02:05 | 4.25744 | -73.68449 | 31264 ft | 498 kts | 318° |
| 2026-04-21 02:05 | 4.28317 | -73.70794 | 30597 ft | 497 kts | 317° |
| 2026-04-21 02:05 | 4.30836 | -73.73137 | 30006 ft | 492 kts | 316° |
| 2026-04-21 02:05 | 4.33332 | -73.75459 | 29402 ft | 487 kts | 316° |
| 2026-04-21 02:06 | 4.35810 | -73.77760 | 28809 ft | 482 kts | 316° |
| 2026-04-21 02:06 | 4.38257 | -73.80027 | 28295 ft | 477 kts | 316° |
| 2026-04-21 02:06 | 4.40675 | -73.82266 | 27750 ft | 472 kts | 316° |
| 2026-04-21 02:06 | 4.43046 | -73.84460 | 27188 ft | 467 kts | 316° |
| 2026-04-21 02:07 | 4.45426 | -73.86661 | 26617 ft | 462 kts | 316° |
| 2026-04-21 02:07 | 4.47777 | -73.88835 | 26063 ft | 458 kts | 316° |
| 2026-04-21 02:07 | 4.50111 | -73.90994 | 25488 ft | 454 kts | 316° |
| 2026-04-21 02:07 | 4.52417 | -73.93126 | 25152 ft | 445 kts | 316° |
| 2026-04-21 02:08 | 4.54649 | -73.95191 | 25072 ft | 430 kts | 316° |
| 2026-04-21 02:08 | 4.56815 | -73.97194 | 24905 ft | 417 kts | 316° |
| 2026-04-21 02:08 | 4.58925 | -73.99146 | 24688 ft | 407 kts | 317° |
| 2026-04-21 02:08 | 4.61116 | -74.00932 | 24204 ft | 407 kts | 324° |
| 2026-04-21 02:09 | 4.63488 | -74.02475 | 23718 ft | 405 kts | 327° |
| 2026-04-21 02:09 | 4.65872 | -74.03947 | 23246 ft | 400 kts | 328° |
| 2026-04-21 02:09 | 4.68238 | -74.05400 | 22783 ft | 397 kts | 328° |
| 2026-04-21 02:09 | 4.70549 | -74.06822 | 22347 ft | 392 kts | 328° |
| 2026-04-21 02:10 | 4.72860 | -74.08248 | 21922 ft | 388 kts | 328° |
| 2026-04-21 02:10 | 4.75146 | -74.09661 | 21506 ft | 384 kts | 328° |
| 2026-04-21 02:10 | 4.77410 | -74.11061 | 21087 ft | 380 kts | 328° |
| 2026-04-21 02:10 | 4.79643 | -74.12444 | 20664 ft | 376 kts | 328° |
| 2026-04-21 02:11 | 4.81862 | -74.13818 | 20251 ft | 373 kts | 328° |
| 2026-04-21 02:11 | 4.84060 | -74.15179 | 19846 ft | 369 kts | 328° |
| 2026-04-21 02:11 | 4.86229 | -74.16523 | 19577 ft | 362 kts | 328° |
| 2026-04-21 02:11 | 4.88327 | -74.17823 | 19465 ft | 349 kts | 328° |
| 2026-04-21 02:12 | 4.90365 | -74.19086 | 19275 ft | 340 kts | 328° |
| 2026-04-21 02:12 | 4.92374 | -74.20331 | 18875 ft | 338 kts | 328° |
| 2026-04-21 02:12 | 4.94377 | -74.21576 | 18414 ft | 339 kts | 328° |
| 2026-04-21 02:12 | 4.96218 | -74.23044 | 17901 ft | 338 kts | 312° |
| 2026-04-21 02:13 | 4.97542 | -74.24974 | 17528 ft | 335 kts | 300° |
| 2026-04-21 02:13 | 4.98638 | -74.27030 | 17122 ft | 333 kts | 298° |
| 2026-04-21 02:13 | 4.99678 | -74.29063 | 16713 ft | 331 kts | 298° |
| 2026-04-21 02:13 | 5.00723 | -74.31109 | 16299 ft | 329 kts | 298° |
| 2026-04-21 02:14 | 5.01576 | -74.33228 | 15901 ft | 328 kts | 284° |
| 2026-04-21 02:14 | 5.01649 | -74.35494 | 15473 ft | 329 kts | 259° |
| 2026-04-21 02:14 | 5.00751 | -74.37583 | 15049 ft | 327 kts | 234° |
| 2026-04-21 02:14 | 4.99063 | -74.39096 | 14607 ft | 327 kts | 209° |
| 2026-04-21 02:15 | 4.96960 | -74.39947 | 14079 ft | 325 kts | 198° |
| 2026-04-21 02:15 | 4.94789 | -74.40581 | 13377 ft | 324 kts | 193° |
| 2026-04-21 02:15 | 4.92563 | -74.40740 | 12981 ft | 320 kts | 172° |
| 2026-04-21 02:15 | 4.90514 | -74.40016 | 12824 ft | 308 kts | 146° |
| 2026-04-21 02:16 | 4.88998 | -74.38610 | 12888 ft | 289 kts | 129° |
| 2026-04-21 02:16 | 4.87788 | -74.37069 | 12936 ft | 273 kts | 126° |
| 2026-04-21 02:16 | 4.86679 | -74.35597 | 12956 ft | 256 kts | 126° |
| 2026-04-21 02:16 | 4.85646 | -74.34239 | 12940 ft | 241 kts | 126° |
| 2026-04-21 02:17 | 4.84663 | -74.32944 | 12757 ft | 226 kts | 126° |
| 2026-04-21 02:17 | 4.83737 | -74.31712 | 12460 ft | 217 kts | 125° |
| 2026-04-21 02:17 | 4.82839 | -74.30515 | 12109 ft | 211 kts | 125° |
| 2026-04-21 02:17 | 4.81973 | -74.29363 | 11796 ft | 202 kts | 126° |
| 2026-04-21 02:18 | 4.81149 | -74.28269 | 11539 ft | 191 kts | 125° |
| 2026-04-21 02:18 | 4.80369 | -74.27232 | 11307 ft | 180 kts | 125° |
| 2026-04-21 02:18 | 4.79634 | -74.26253 | 11120 ft | 170 kts | 125° |
| 2026-04-21 02:18 | 4.78941 | -74.25333 | 10909 ft | 161 kts | 125° |
| 2026-04-21 02:19 | 4.78281 | -74.24454 | 10720 ft | 159 kts | 125° |
| 2026-04-21 02:19 | 4.77618 | -74.23573 | 10532 ft | 159 kts | 125° |
| 2026-04-21 02:19 | 4.76953 | -74.22688 | 10344 ft | 159 kts | 125° |
| 2026-04-21 02:19 | 4.76290 | -74.21806 | 10164 ft | 158 kts | 126° |
| 2026-04-21 02:20 | 4.75633 | -74.20932 | 9927 ft | 156 kts | 127° |
| 2026-04-21 02:20 | 4.74984 | -74.20070 | 9719 ft | 154 kts | 127° |
| 2026-04-21 02:20 | 4.74339 | -74.19213 | 9499 ft | 154 kts | 127° |
| 2026-04-21 02:20 | 4.73705 | -74.18350 | 9268 ft | 153 kts | 126° |
| 2026-04-21 02:21 | 4.73074 | -74.17489 | 9072 ft | 154 kts | 127° |
| 2026-04-21 02:21 | 4.72429 | -74.16635 | 8790 ft | 153 kts | 128° |
| 2026-04-21 02:21 | 4.71786 | -74.15789 | 8531 ft | 152 kts | 128° |
| 2026-04-21 02:21 | 4.71153 | -74.14947 | 8372 ft | 150 kts | 127° |
| 2026-04-21 02:22 | 4.70596 | -74.14227 | 8366 ft | 104 kts | 127° |
| 2026-04-21 02:22 | 4.70282 | -74.13810 | 8363 ft | 46 kts | 127° |
| 2026-04-21 02:22 | 4.70138 | -74.13619 | 8365 ft | 32 kts | 127° |
| 2026-04-21 02:22 | 4.70013 | -74.13454 | 8365 ft | 17 kts | 127° |
| 2026-04-21 02:23 | 4.69948 | -74.13375 | 8366 ft | 13 kts | 137° |
| 2026-04-21 02:23 | 4.69869 | -74.13326 | 8366 ft | 14 kts | 157° |
| 2026-04-21 02:23 | 4.69774 | -74.13307 | 8366 ft | 14 kts | 172° |
| 2026-04-21 02:23 | 4.69704 | -74.13300 | 8366 ft | 6 kts | 189° |
| 2026-04-21 02:24 | 4.69684 | -74.13325 | 8366 ft | 4 kts | 256° |
| 2026-04-21 02:24 | 4.69696 | -74.13365 | 8366 ft | 8 kts | 298° |
| 2026-04-21 02:24 | 4.69738 | -74.13419 | 8366 ft | 10 kts | 308° |
| 2026-04-21 02:24 | 4.69781 | -74.13477 | 8366 ft | 11 kts | 307° |
| 2026-04-21 02:25 | 4.69827 | -74.13537 | 8366 ft | 11 kts | 307° |
| 2026-04-21 02:25 | 4.69872 | -74.13601 | 8366 ft | 11 kts | 296° |
| 2026-04-21 02:25 | 4.69877 | -74.13679 | 8365 ft | 11 kts | 263° |
| 2026-04-21 02:25 | 4.69902 | -74.13751 | 8366 ft | 11 kts | 301° |
| 2026-04-21 02:26 | 4.69949 | -74.13815 | 8366 ft | 12 kts | 308° |
| 2026-04-21 02:26 | 4.69999 | -74.13880 | 8365 ft | 12 kts | 306° |
| 2026-04-21 02:26 | 4.70040 | -74.13936 | 8365 ft | 10 kts | 307° |
| 2026-04-21 02:26 | 4.70062 | -74.13996 | 8365 ft | 9 kts | 255° |
| 2026-04-21 02:27 | 4.70023 | -74.14016 | 8365 ft | 5 kts | 166° |
| 2026-04-21 02:27 | 4.69995 | -74.13991 | 8365 ft | 6 kts | 131° |
| 2026-04-21 02:27 | 4.69970 | -74.13960 | 8366 ft | 6 kts | 128° |
| 2026-04-21 02:27 | 4.69943 | -74.13924 | 8366 ft | 7 kts | 127° |
| 2026-04-21 02:28 | 4.69913 | -74.13885 | 8366 ft | 7 kts | 128° |
| 2026-04-21 02:28 | 4.69892 | -74.13858 | 8366 ft | 8 kts | 127° |
| 2026-04-21 02:28 | 4.69848 | -74.13799 | 8366 ft | 8 kts | 126° |
| 2026-04-21 02:28 | 4.69812 | -74.13752 | 8366 ft | 9 kts | 127° |
| 2026-04-21 02:29 | 4.69775 | -74.13702 | 8366 ft | 9 kts | 127° |
| 2026-04-21 02:29 | 4.69750 | -74.13667 | 8366 ft | 10 kts | 126° |
| 2026-04-21 02:29 | 4.69709 | -74.13613 | 8366 ft | 10 kts | 127° |
| 2026-04-21 02:29 | 4.69688 | -74.13599 | 8366 ft | 2 kts | 168° |
| 2026-04-21 02:30 | 4.69669 | -74.13611 | 8366 ft | 5 kts | 212° |
| 2026-04-21 02:30 | 4.69645 | -74.13627 | 8366 ft | 6 kts | 219° |
| 2026-04-21 02:30 | 4.69644 | -74.13628 | 8366 ft | 0 kts | 219° |